sensor_id;sensor_type;location;lat;lon;timestamp;P1;durP1;ratioP1;P2;durP2;ratioP2
26014;SDS011;13793;55.388;37.844;2024-03-02T00:01:20;80.33;;;40.83;;
26014;SDS011;13793;55.388;37.844;2024-03-02T00:03:52;82.30;;;41.40;;
26014;SDS011;13793;55.388;37.844;2024-03-02T00:06:23;79.60;;;41.17;;
26014;SDS011;13793;55.388;37.844;2024-03-02T00:08:56;85.07;;;42.53;;
26014;SDS011;13793;55.388;37.844;2024-03-02T00:11:28;82.47;;;41.73;;
26014;SDS011;13793;55.388;37.844;2024-03-02T00:13:59;92.30;;;44.40;;
26014;SDS011;13793;55.388;37.844;2024-03-02T00:16:34;96.20;;;44.53;;
26014;SDS011;13793;55.388;37.844;2024-03-02T00:19:05;84.03;;;43.13;;
26014;SDS011;13793;55.388;37.844;2024-03-02T00:21:36;87.47;;;43.90;;
26014;SDS011;13793;55.388;37.844;2024-03-02T00:26:50;82.23;;;42.73;;
26014;SDS011;13793;55.388;37.844;2024-03-02T00:29:21;81.80;;;41.70;;
26014;SDS011;13793;55.388;37.844;2024-03-02T00:31:53;85.30;;;42.60;;
26014;SDS011;13793;55.388;37.844;2024-03-02T00:34:24;86.60;;;44.20;;
26014;SDS011;13793;55.388;37.844;2024-03-02T00:36:57;88.57;;;45.83;;
26014;SDS011;13793;55.388;37.844;2024-03-02T00:39:28;95.50;;;44.97;;
26014;SDS011;13793;55.388;37.844;2024-03-02T00:41:59;91.43;;;45.80;;
26014;SDS011;13793;55.388;37.844;2024-03-02T00:44:30;100.50;;;48.53;;
26014;SDS011;13793;55.388;37.844;2024-03-02T00:47:04;93.37;;;46.03;;
26014;SDS011;13793;55.388;37.844;2024-03-02T00:49:35;90.20;;;46.27;;
26014;SDS011;13793;55.388;37.844;2024-03-02T00:52:06;93.17;;;47.27;;
26014;SDS011;13793;55.388;37.844;2024-03-02T00:54:37;85.80;;;45.37;;
26014;SDS011;13793;55.388;37.844;2024-03-02T00:57:10;88.47;;;44.87;;
26014;SDS011;13793;55.388;37.844;2024-03-02T00:59:40;95.50;;;46.07;;
26014;SDS011;13793;55.388;37.844;2024-03-02T01:02:11;92.07;;;46.37;;
26014;SDS011;13793;55.388;37.844;2024-03-02T01:04:42;93.30;;;47.87;;
26014;SDS011;13793;55.388;37.844;2024-03-02T01:07:13;91.70;;;44.43;;
26014;SDS011;13793;55.388;37.844;2024-03-02T01:09:44;97.87;;;49.90;;
26014;SDS011;13793;55.388;37.844;2024-03-02T01:12:15;89.33;;;47.70;;
26014;SDS011;13793;55.388;37.844;2024-03-02T01:14:46;100.93;;;48.67;;
26014;SDS011;13793;55.388;37.844;2024-03-02T01:17:17;96.13;;;48.43;;
26014;SDS011;13793;55.388;37.844;2024-03-02T01:19:48;98.93;;;47.80;;
26014;SDS011;13793;55.388;37.844;2024-03-02T01:22:19;90.60;;;45.47;;
26014;SDS011;13793;55.388;37.844;2024-03-02T01:24:51;88.93;;;44.53;;
26014;SDS011;13793;55.388;37.844;2024-03-02T01:27:25;85.17;;;43.40;;
26014;SDS011;13793;55.388;37.844;2024-03-02T01:29:56;83.60;;;44.40;;
26014;SDS011;13793;55.388;37.844;2024-03-02T01:32:30;85.53;;;44.37;;
26014;SDS011;13793;55.388;37.844;2024-03-02T01:35:01;90.10;;;46.23;;
26014;SDS011;13793;55.388;37.844;2024-03-02T01:37:32;85.40;;;44.60;;
26014;SDS011;13793;55.388;37.844;2024-03-02T01:40:04;93.80;;;47.97;;
26014;SDS011;13793;55.388;37.844;2024-03-02T01:42:39;94.33;;;46.00;;
26014;SDS011;13793;55.388;37.844;2024-03-02T01:45:10;102.80;;;48.83;;
26014;SDS011;13793;55.388;37.844;2024-03-02T01:47:41;96.07;;;47.57;;
26014;SDS011;13793;55.388;37.844;2024-03-02T01:50:13;98.17;;;49.40;;
26014;SDS011;13793;55.388;37.844;2024-03-02T01:52:43;106.50;;;50.23;;
26014;SDS011;13793;55.388;37.844;2024-03-02T01:55:14;101.17;;;50.50;;
26014;SDS011;13793;55.388;37.844;2024-03-02T01:57:45;104.47;;;51.60;;
26014;SDS011;13793;55.388;37.844;2024-03-02T02:00:17;100.93;;;49.50;;
26014;SDS011;13793;55.388;37.844;2024-03-02T02:02:48;100.67;;;50.77;;
26014;SDS011;13793;55.388;37.844;2024-03-02T02:05:19;107.20;;;51.63;;
26014;SDS011;13793;55.388;37.844;2024-03-02T02:07:50;115.87;;;55.13;;
26014;SDS011;13793;55.388;37.844;2024-03-02T02:10:21;107.50;;;54.27;;
26014;SDS011;13793;55.388;37.844;2024-03-02T02:12:52;108.70;;;53.97;;
26014;SDS011;13793;55.388;37.844;2024-03-02T02:15:30;118.40;;;56.43;;
26014;SDS011;13793;55.388;37.844;2024-03-02T02:18:03;114.60;;;55.23;;
26014;SDS011;13793;55.388;37.844;2024-03-02T02:20:35;107.87;;;56.30;;
26014;SDS011;13793;55.388;37.844;2024-03-02T02:23:06;108.13;;;56.97;;
26014;SDS011;13793;55.388;37.844;2024-03-02T02:25:38;112.30;;;55.03;;
26014;SDS011;13793;55.388;37.844;2024-03-02T02:28:08;115.27;;;55.07;;
26014;SDS011;13793;55.388;37.844;2024-03-02T02:30:39;117.13;;;57.03;;
26014;SDS011;13793;55.388;37.844;2024-03-02T02:33:10;116.17;;;58.03;;
26014;SDS011;13793;55.388;37.844;2024-03-02T02:35:41;116.37;;;56.40;;
26014;SDS011;13793;55.388;37.844;2024-03-02T02:38:11;121.07;;;58.47;;
26014;SDS011;13793;55.388;37.844;2024-03-02T02:40:42;123.83;;;60.97;;
26014;SDS011;13793;55.388;37.844;2024-03-02T02:43:13;123.03;;;60.17;;
26014;SDS011;13793;55.388;37.844;2024-03-02T02:45:44;122.27;;;59.27;;
26014;SDS011;13793;55.388;37.844;2024-03-02T02:48:16;114.13;;;57.70;;
26014;SDS011;13793;55.388;37.844;2024-03-02T02:50:47;116.03;;;56.60;;
26014;SDS011;13793;55.388;37.844;2024-03-02T02:53:17;120.97;;;58.77;;
26014;SDS011;13793;55.388;37.844;2024-03-02T02:55:51;115.50;;;56.83;;
26014;SDS011;13793;55.388;37.844;2024-03-02T02:58:21;118.10;;;58.87;;
26014;SDS011;13793;55.388;37.844;2024-03-02T03:00:52;120.20;;;58.40;;
26014;SDS011;13793;55.388;37.844;2024-03-02T03:03:25;120.03;;;59.67;;
26014;SDS011;13793;55.388;37.844;2024-03-02T03:05:56;121.80;;;59.53;;
26014;SDS011;13793;55.388;37.844;2024-03-02T03:08:27;116.80;;;58.67;;
26014;SDS011;13793;55.388;37.844;2024-03-02T03:10:58;123.47;;;60.07;;
26014;SDS011;13793;55.388;37.844;2024-03-02T03:13:29;127.13;;;59.93;;
26014;SDS011;13793;55.388;37.844;2024-03-02T03:16:03;120.57;;;57.97;;
26014;SDS011;13793;55.388;37.844;2024-03-02T03:18:34;114.80;;;55.57;;
26014;SDS011;13793;55.388;37.844;2024-03-02T03:21:06;118.93;;;57.30;;
26014;SDS011;13793;55.388;37.844;2024-03-02T03:23:36;114.80;;;55.43;;
26014;SDS011;13793;55.388;37.844;2024-03-02T03:26:07;111.47;;;55.30;;
26014;SDS011;13793;55.388;37.844;2024-03-02T03:28:37;125.93;;;60.80;;
26014;SDS011;13793;55.388;37.844;2024-03-02T03:31:08;118.83;;;56.03;;
26014;SDS011;13793;55.388;37.844;2024-03-02T03:33:39;121.57;;;57.73;;
26014;SDS011;13793;55.388;37.844;2024-03-02T03:36:10;117.87;;;56.80;;
26014;SDS011;13793;55.388;37.844;2024-03-02T03:38:40;121.20;;;56.70;;
26014;SDS011;13793;55.388;37.844;2024-03-02T03:41:11;126.80;;;57.07;;
26014;SDS011;13793;55.388;37.844;2024-03-02T03:43:42;134.93;;;61.77;;
26014;SDS011;13793;55.388;37.844;2024-03-02T03:46:13;124.20;;;57.97;;
26014;SDS011;13793;55.388;37.844;2024-03-02T03:48:44;119.03;;;57.73;;
26014;SDS011;13793;55.388;37.844;2024-03-02T03:51:15;120.13;;;58.20;;
26014;SDS011;13793;55.388;37.844;2024-03-02T03:53:45;123.90;;;57.17;;
26014;SDS011;13793;55.388;37.844;2024-03-02T03:56:16;121.83;;;57.00;;
26014;SDS011;13793;55.388;37.844;2024-03-02T03:58:47;119.10;;;55.60;;
26014;SDS011;13793;55.388;37.844;2024-03-02T04:01:18;129.77;;;59.37;;
26014;SDS011;13793;55.388;37.844;2024-03-02T04:03:50;122.63;;;58.83;;
26014;SDS011;13793;55.388;37.844;2024-03-02T04:06:24;124.53;;;58.20;;
26014;SDS011;13793;55.388;37.844;2024-03-02T04:08:54;134.30;;;61.43;;
26014;SDS011;13793;55.388;37.844;2024-03-02T04:11:25;133.43;;;59.60;;
26014;SDS011;13793;55.388;37.844;2024-03-02T04:13:56;125.53;;;58.87;;
26014;SDS011;13793;55.388;37.844;2024-03-02T04:16:27;126.90;;;58.53;;
26014;SDS011;13793;55.388;37.844;2024-03-02T04:18:58;116.63;;;55.50;;
26014;SDS011;13793;55.388;37.844;2024-03-02T04:21:29;123.33;;;57.30;;
26014;SDS011;13793;55.388;37.844;2024-03-02T04:24:00;114.47;;;56.17;;
26014;SDS011;13793;55.388;37.844;2024-03-02T04:26:30;111.23;;;55.10;;
26014;SDS011;13793;55.388;37.844;2024-03-02T04:29:01;104.50;;;53.67;;
26014;SDS011;13793;55.388;37.844;2024-03-02T04:31:32;119.77;;;55.73;;
26014;SDS011;13793;55.388;37.844;2024-03-02T04:34:03;113.33;;;55.33;;
26014;SDS011;13793;55.388;37.844;2024-03-02T04:36:34;111.23;;;56.17;;
26014;SDS011;13793;55.388;37.844;2024-03-02T04:39:05;109.80;;;54.97;;
26014;SDS011;13793;55.388;37.844;2024-03-02T04:41:37;117.63;;;56.83;;
26014;SDS011;13793;55.388;37.844;2024-03-02T04:44:08;131.80;;;62.37;;
26014;SDS011;13793;55.388;37.844;2024-03-02T04:46:39;135.70;;;63.50;;
26014;SDS011;13793;55.388;37.844;2024-03-02T04:49:10;124.50;;;61.07;;
26014;SDS011;13793;55.388;37.844;2024-03-02T04:51:40;130.43;;;63.70;;
26014;SDS011;13793;55.388;37.844;2024-03-02T04:54:11;130.97;;;62.60;;
26014;SDS011;13793;55.388;37.844;2024-03-02T04:56:42;138.23;;;66.70;;
26014;SDS011;13793;55.388;37.844;2024-03-02T04:59:16;140.73;;;66.37;;
26014;SDS011;13793;55.388;37.844;2024-03-02T05:01:46;132.90;;;64.80;;
26014;SDS011;13793;55.388;37.844;2024-03-02T05:04:17;132.43;;;66.57;;
26014;SDS011;13793;55.388;37.844;2024-03-02T05:06:48;136.97;;;69.60;;
26014;SDS011;13793;55.388;37.844;2024-03-02T05:09:21;138.30;;;69.47;;
26014;SDS011;13793;55.388;37.844;2024-03-02T05:11:52;129.60;;;67.73;;
26014;SDS011;13793;55.388;37.844;2024-03-02T05:14:24;128.60;;;68.47;;
26014;SDS011;13793;55.388;37.844;2024-03-02T05:16:55;117.97;;;64.47;;
26014;SDS011;13793;55.388;37.844;2024-03-02T05:19:26;116.83;;;62.80;;
26014;SDS011;13793;55.388;37.844;2024-03-02T05:21:57;114.43;;;62.87;;
26014;SDS011;13793;55.388;37.844;2024-03-02T05:24:27;110.73;;;62.40;;
26014;SDS011;13793;55.388;37.844;2024-03-02T05:26:58;109.53;;;60.07;;
26014;SDS011;13793;55.388;37.844;2024-03-02T05:29:28;99.63;;;56.60;;
26014;SDS011;13793;55.388;37.844;2024-03-02T05:31:59;98.27;;;54.97;;
26014;SDS011;13793;55.388;37.844;2024-03-02T05:34:30;94.33;;;53.97;;
26014;SDS011;13793;55.388;37.844;2024-03-02T05:37:02;93.87;;;53.47;;
26014;SDS011;13793;55.388;37.844;2024-03-02T05:39:33;103.73;;;54.47;;
26014;SDS011;13793;55.388;37.844;2024-03-02T05:42:04;95.80;;;53.80;;
26014;SDS011;13793;55.388;37.844;2024-03-02T05:44:35;92.50;;;52.47;;
26014;SDS011;13793;55.388;37.844;2024-03-02T05:47:06;93.77;;;51.20;;
26014;SDS011;13793;55.388;37.844;2024-03-02T05:49:40;94.97;;;52.37;;
26014;SDS011;13793;55.388;37.844;2024-03-02T05:52:11;94.93;;;50.53;;
26014;SDS011;13793;55.388;37.844;2024-03-02T05:54:42;94.80;;;51.20;;
26014;SDS011;13793;55.388;37.844;2024-03-02T05:57:12;91.97;;;52.90;;
26014;SDS011;13793;55.388;37.844;2024-03-02T05:59:48;94.03;;;52.80;;
26014;SDS011;13793;55.388;37.844;2024-03-02T06:02:19;94.73;;;53.93;;
26014;SDS011;13793;55.388;37.844;2024-03-02T06:04:50;91.53;;;52.33;;
26014;SDS011;13793;55.388;37.844;2024-03-02T06:07:21;87.50;;;52.13;;
26014;SDS011;13793;55.388;37.844;2024-03-02T06:09:52;87.90;;;51.83;;
26014;SDS011;13793;55.388;37.844;2024-03-02T06:12:22;89.77;;;52.23;;
26014;SDS011;13793;55.388;37.844;2024-03-02T06:14:54;97.07;;;54.23;;
26014;SDS011;13793;55.388;37.844;2024-03-02T06:17:25;108.10;;;58.70;;
26014;SDS011;13793;55.388;37.844;2024-03-02T06:19:56;95.73;;;57.67;;
26014;SDS011;13793;55.388;37.844;2024-03-02T06:22:28;85.27;;;50.23;;
26014;SDS011;13793;55.388;37.844;2024-03-02T06:24:59;81.40;;;48.27;;
26014;SDS011;13793;55.388;37.844;2024-03-02T06:27:30;77.83;;;47.63;;
26014;SDS011;13793;55.388;37.844;2024-03-02T06:30:02;79.00;;;46.30;;
26014;SDS011;13793;55.388;37.844;2024-03-02T06:32:33;73.67;;;46.37;;
26014;SDS011;13793;55.388;37.844;2024-03-02T06:35:04;66.90;;;40.17;;
26014;SDS011;13793;55.388;37.844;2024-03-02T06:37:37;61.37;;;37.43;;
26014;SDS011;13793;55.388;37.844;2024-03-02T06:40:11;63.13;;;39.33;;
26014;SDS011;13793;55.388;37.844;2024-03-02T06:42:42;62.63;;;40.70;;
26014;SDS011;13793;55.388;37.844;2024-03-02T06:45:13;62.40;;;38.90;;
26014;SDS011;13793;55.388;37.844;2024-03-02T06:47:44;56.77;;;35.27;;
26014;SDS011;13793;55.388;37.844;2024-03-02T06:50:15;53.70;;;34.57;;
26014;SDS011;13793;55.388;37.844;2024-03-02T06:52:46;55.33;;;36.77;;
26014;SDS011;13793;55.388;37.844;2024-03-02T06:55:17;62.40;;;38.20;;
26014;SDS011;13793;55.388;37.844;2024-03-02T06:57:48;58.27;;;37.37;;
26014;SDS011;13793;55.388;37.844;2024-03-02T07:00:19;59.70;;;37.63;;
26014;SDS011;13793;55.388;37.844;2024-03-02T07:02:50;59.43;;;37.50;;
26014;SDS011;13793;55.388;37.844;2024-03-02T07:05:21;59.87;;;38.00;;
26014;SDS011;13793;55.388;37.844;2024-03-02T07:07:53;59.30;;;39.20;;
26014;SDS011;13793;55.388;37.844;2024-03-02T07:10:23;60.37;;;38.03;;
26014;SDS011;13793;55.388;37.844;2024-03-02T07:12:55;56.03;;;37.87;;
26014;SDS011;13793;55.388;37.844;2024-03-02T07:15:26;59.90;;;39.63;;
26014;SDS011;13793;55.388;37.844;2024-03-02T07:17:59;54.07;;;37.90;;
26014;SDS011;13793;55.388;37.844;2024-03-02T07:20:30;55.40;;;38.27;;
26014;SDS011;13793;55.388;37.844;2024-03-02T07:23:02;55.70;;;38.43;;
26014;SDS011;13793;55.388;37.844;2024-03-02T07:25:33;52.13;;;34.53;;
26014;SDS011;13793;55.388;37.844;2024-03-02T07:28:04;52.87;;;36.60;;
26014;SDS011;13793;55.388;37.844;2024-03-02T07:30:35;49.47;;;33.63;;
26014;SDS011;13793;55.388;37.844;2024-03-02T07:33:07;44.60;;;31.80;;
26014;SDS011;13793;55.388;37.844;2024-03-02T07:35:38;43.20;;;29.13;;
26014;SDS011;13793;55.388;37.844;2024-03-02T07:38:09;44.47;;;29.57;;
26014;SDS011;13793;55.388;37.844;2024-03-02T07:40:41;48.77;;;31.90;;
26014;SDS011;13793;55.388;37.844;2024-03-02T07:43:13;46.90;;;33.27;;
26014;SDS011;13793;55.388;37.844;2024-03-02T07:45:44;43.33;;;31.10;;
26014;SDS011;13793;55.388;37.844;2024-03-02T07:48:15;43.70;;;28.53;;
26014;SDS011;13793;55.388;37.844;2024-03-02T07:50:47;46.17;;;29.87;;
26014;SDS011;13793;55.388;37.844;2024-03-02T07:53:17;43.67;;;28.77;;
26014;SDS011;13793;55.388;37.844;2024-03-02T07:55:48;42.30;;;28.53;;
26014;SDS011;13793;55.388;37.844;2024-03-02T07:58:19;39.10;;;27.40;;
26014;SDS011;13793;55.388;37.844;2024-03-02T08:00:50;39.90;;;27.70;;
26014;SDS011;13793;55.388;37.844;2024-03-02T08:03:21;40.60;;;28.20;;
26014;SDS011;13793;55.388;37.844;2024-03-02T08:05:52;41.60;;;28.02;;
26014;SDS011;13793;55.388;37.844;2024-03-02T08:08:23;40.05;;;27.17;;
26014;SDS011;13793;55.388;37.844;2024-03-02T08:10:54;38.88;;;26.02;;
26014;SDS011;13793;55.388;37.844;2024-03-02T08:13:25;40.70;;;27.07;;
26014;SDS011;13793;55.388;37.844;2024-03-02T08:15:56;39.98;;;28.05;;
26014;SDS011;13793;55.388;37.844;2024-03-02T08:18:27;43.42;;;27.30;;
26014;SDS011;13793;55.388;37.844;2024-03-02T08:20:58;42.90;;;27.13;;
26014;SDS011;13793;55.388;37.844;2024-03-02T08:23:30;39.85;;;25.90;;
26014;SDS011;13793;55.388;37.844;2024-03-02T08:26:01;36.73;;;25.92;;
26014;SDS011;13793;55.388;37.844;2024-03-02T08:28:33;34.08;;;24.63;;
26014;SDS011;13793;55.388;37.844;2024-03-02T08:31:09;32.78;;;23.85;;
26014;SDS011;13793;55.388;37.844;2024-03-02T08:33:40;33.33;;;23.10;;
26014;SDS011;13793;55.388;37.844;2024-03-02T08:36:12;30.95;;;21.65;;
26014;SDS011;13793;55.388;37.844;2024-03-02T08:38:43;31.82;;;22.37;;
26014;SDS011;13793;55.388;37.844;2024-03-02T08:41:16;32.38;;;23.45;;
26014;SDS011;13793;55.388;37.844;2024-03-02T08:43:47;36.48;;;23.80;;
26014;SDS011;13793;55.388;37.844;2024-03-02T08:46:17;36.88;;;23.57;;
26014;SDS011;13793;55.388;37.844;2024-03-02T08:48:49;38.17;;;24.27;;
26014;SDS011;13793;55.388;37.844;2024-03-02T08:51:19;36.75;;;23.38;;
26014;SDS011;13793;55.388;37.844;2024-03-02T08:53:51;34.67;;;23.73;;
26014;SDS011;13793;55.388;37.844;2024-03-02T08:56:22;33.63;;;23.20;;
26014;SDS011;13793;55.388;37.844;2024-03-02T08:58:53;34.35;;;23.75;;
26014;SDS011;13793;55.388;37.844;2024-03-02T09:01:24;34.88;;;23.25;;
26014;SDS011;13793;55.388;37.844;2024-03-02T09:03:55;34.15;;;22.85;;
26014;SDS011;13793;55.388;37.844;2024-03-02T09:06:26;33.42;;;23.02;;
26014;SDS011;13793;55.388;37.844;2024-03-02T09:08:56;36.10;;;22.35;;
26014;SDS011;13793;55.388;37.844;2024-03-02T09:11:27;30.97;;;22.75;;
26014;SDS011;13793;55.388;37.844;2024-03-02T09:13:58;34.05;;;23.20;;
26014;SDS011;13793;55.388;37.844;2024-03-02T09:16:29;34.23;;;22.25;;
26014;SDS011;13793;55.388;37.844;2024-03-02T09:19:00;27.85;;;21.00;;
26014;SDS011;13793;55.388;37.844;2024-03-02T09:21:31;31.90;;;22.75;;
26014;SDS011;13793;55.388;37.844;2024-03-02T09:24:04;31.23;;;22.75;;
26014;SDS011;13793;55.388;37.844;2024-03-02T09:26:35;31.65;;;23.73;;
26014;SDS011;13793;55.388;37.844;2024-03-02T09:29:06;33.25;;;24.15;;
26014;SDS011;13793;55.388;37.844;2024-03-02T09:31:41;36.42;;;24.75;;
26014;SDS011;13793;55.388;37.844;2024-03-02T09:34:12;38.45;;;25.70;;
26014;SDS011;13793;55.388;37.844;2024-03-02T09:36:44;35.40;;;25.37;;
26014;SDS011;13793;55.388;37.844;2024-03-02T09:39:15;37.10;;;24.82;;
26014;SDS011;13793;55.388;37.844;2024-03-02T09:41:47;37.25;;;25.77;;
26014;SDS011;13793;55.388;37.844;2024-03-02T09:44:19;35.38;;;24.25;;
26014;SDS011;13793;55.388;37.844;2024-03-02T09:46:51;35.80;;;24.77;;
26014;SDS011;13793;55.388;37.844;2024-03-02T09:49:22;35.25;;;25.50;;
26014;SDS011;13793;55.388;37.844;2024-03-02T09:51:53;33.20;;;24.50;;
26014;SDS011;13793;55.388;37.844;2024-03-02T09:54:24;36.98;;;24.70;;
26014;SDS011;13793;55.388;37.844;2024-03-02T09:56:55;34.20;;;24.12;;
26014;SDS011;13793;55.388;37.844;2024-03-02T09:59:26;31.25;;;23.42;;
26014;SDS011;13793;55.388;37.844;2024-03-02T10:02:01;35.38;;;22.90;;
26014;SDS011;13793;55.388;37.844;2024-03-02T10:04:33;31.45;;;23.73;;
26014;SDS011;13793;55.388;37.844;2024-03-02T10:07:17;30.50;;;22.00;;
26014;SDS011;13793;55.388;37.844;2024-03-02T10:09:48;33.67;;;21.93;;
26014;SDS011;13793;55.388;37.844;2024-03-02T10:12:20;31.45;;;22.98;;
26014;SDS011;13793;55.388;37.844;2024-03-02T10:14:51;31.27;;;22.45;;
26014;SDS011;13793;55.388;37.844;2024-03-02T10:17:25;30.57;;;22.27;;
26014;SDS011;13793;55.388;37.844;2024-03-02T10:19:57;32.80;;;22.93;;
26014;SDS011;13793;55.388;37.844;2024-03-02T10:22:29;30.15;;;21.12;;
26014;SDS011;13793;55.388;37.844;2024-03-02T10:25:00;29.77;;;20.52;;
26014;SDS011;13793;55.388;37.844;2024-03-02T10:27:31;28.12;;;20.27;;
26014;SDS011;13793;55.388;37.844;2024-03-02T10:30:03;27.75;;;19.67;;
26014;SDS011;13793;55.388;37.844;2024-03-02T10:32:34;30.70;;;21.17;;
26014;SDS011;13793;55.388;37.844;2024-03-02T10:35:06;34.13;;;21.95;;
26014;SDS011;13793;55.388;37.844;2024-03-02T10:37:37;29.82;;;22.37;;
26014;SDS011;13793;55.388;37.844;2024-03-02T10:40:08;31.85;;;23.40;;
26014;SDS011;13793;55.388;37.844;2024-03-02T10:42:44;32.85;;;21.68;;
26014;SDS011;13793;55.388;37.844;2024-03-02T10:45:15;32.48;;;22.93;;
26014;SDS011;13793;55.388;37.844;2024-03-02T10:47:46;34.70;;;22.58;;
26014;SDS011;13793;55.388;37.844;2024-03-02T10:50:18;29.65;;;21.48;;
26014;SDS011;13793;55.388;37.844;2024-03-02T10:52:48;28.57;;;21.80;;
26014;SDS011;13793;55.388;37.844;2024-03-02T10:55:19;31.52;;;21.33;;
26014;SDS011;13793;55.388;37.844;2024-03-02T10:57:53;34.18;;;23.35;;
26014;SDS011;13793;55.388;37.844;2024-03-02T11:00:25;29.45;;;21.82;;
26014;SDS011;13793;55.388;37.844;2024-03-02T11:03:02;31.27;;;21.70;;
26014;SDS011;13793;55.388;37.844;2024-03-02T11:05:39;33.48;;;23.73;;
26014;SDS011;13793;55.388;37.844;2024-03-02T11:08:13;26.02;;;17.50;;
26014;SDS011;13793;55.388;37.844;2024-03-02T11:10:54;33.63;;;23.98;;
26014;SDS011;13793;55.388;37.844;2024-03-02T11:13:31;39.13;;;24.82;;
26014;SDS011;13793;55.388;37.844;2024-03-02T11:16:03;35.38;;;24.55;;
26014;SDS011;13793;55.388;37.844;2024-03-02T11:18:36;33.70;;;23.40;;
26014;SDS011;13793;55.388;37.844;2024-03-02T11:21:08;37.85;;;24.02;;
26014;SDS011;13793;55.388;37.844;2024-03-02T11:23:39;35.50;;;23.90;;
26014;SDS011;13793;55.388;37.844;2024-03-02T11:26:21;36.00;;;24.45;;
26014;SDS011;13793;55.388;37.844;2024-03-02T11:28:50;33.18;;;24.63;;
26014;SDS011;13793;55.388;37.844;2024-03-02T11:31:21;36.80;;;25.65;;
26014;SDS011;13793;55.388;37.844;2024-03-02T11:33:52;34.27;;;24.98;;
26014;SDS011;13793;55.388;37.844;2024-03-02T11:36:23;39.75;;;25.80;;
26014;SDS011;13793;55.388;37.844;2024-03-02T11:38:54;37.40;;;25.20;;
26014;SDS011;13793;55.388;37.844;2024-03-02T11:41:25;38.17;;;24.35;;
26014;SDS011;13793;55.388;37.844;2024-03-02T11:43:56;34.85;;;24.18;;
26014;SDS011;13793;55.388;37.844;2024-03-02T11:46:27;37.08;;;23.92;;
26014;SDS011;13793;55.388;37.844;2024-03-02T11:48:57;34.95;;;24.10;;
26014;SDS011;13793;55.388;37.844;2024-03-02T11:51:29;34.35;;;24.15;;
26014;SDS011;13793;55.388;37.844;2024-03-02T11:53:59;36.60;;;23.52;;
26014;SDS011;13793;55.388;37.844;2024-03-02T11:56:31;32.58;;;23.20;;
26014;SDS011;13793;55.388;37.844;2024-03-02T11:59:03;36.15;;;23.45;;
26014;SDS011;13793;55.388;37.844;2024-03-02T12:01:34;32.60;;;24.27;;
26014;SDS011;13793;55.388;37.844;2024-03-02T12:04:05;32.80;;;22.65;;
26014;SDS011;13793;55.388;37.844;2024-03-02T12:06:37;35.33;;;22.80;;
26014;SDS011;13793;55.388;37.844;2024-03-02T12:09:09;34.07;;;23.27;;
26014;SDS011;13793;55.388;37.844;2024-03-02T12:11:43;30.20;;;22.87;;
26014;SDS011;13793;55.388;37.844;2024-03-02T12:14:14;33.17;;;21.90;;
26014;SDS011;13793;55.388;37.844;2024-03-02T12:16:45;37.33;;;23.00;;
26014;SDS011;13793;55.388;37.844;2024-03-02T12:19:16;30.70;;;21.37;;
26014;SDS011;13793;55.388;37.844;2024-03-02T12:21:49;30.30;;;21.43;;
26014;SDS011;13793;55.388;37.844;2024-03-02T12:24:21;30.53;;;21.23;;
26014;SDS011;13793;55.388;37.844;2024-03-02T12:26:53;36.23;;;19.57;;
26014;SDS011;13793;55.388;37.844;2024-03-02T12:29:24;26.33;;;17.43;;
26014;SDS011;13793;55.388;37.844;2024-03-02T12:31:55;22.77;;;16.83;;
26014;SDS011;13793;55.388;37.844;2024-03-02T12:34:26;27.77;;;18.63;;
26014;SDS011;13793;55.388;37.844;2024-03-02T12:36:57;25.50;;;18.07;;
26014;SDS011;13793;55.388;37.844;2024-03-02T12:39:28;28.53;;;19.80;;
26014;SDS011;13793;55.388;37.844;2024-03-02T12:42:01;28.67;;;20.00;;
26014;SDS011;13793;55.388;37.844;2024-03-02T12:44:33;28.33;;;20.80;;
26014;SDS011;13793;55.388;37.844;2024-03-02T12:47:05;30.67;;;21.40;;
26014;SDS011;13793;55.388;37.844;2024-03-02T12:49:36;24.10;;;17.57;;
26014;SDS011;13793;55.388;37.844;2024-03-02T12:52:07;24.80;;;16.40;;
26014;SDS011;13793;55.388;37.844;2024-03-02T12:54:39;26.73;;;16.87;;
26014;SDS011;13793;55.388;37.844;2024-03-02T12:57:09;24.17;;;16.17;;
26014;SDS011;13793;55.388;37.844;2024-03-02T12:59:44;24.43;;;16.47;;
26014;SDS011;13793;55.388;37.844;2024-03-02T13:02:17;25.10;;;16.33;;
26014;SDS011;13793;55.388;37.844;2024-03-02T13:04:54;24.20;;;17.07;;
26014;SDS011;13793;55.388;37.844;2024-03-02T13:07:26;24.43;;;17.40;;
26014;SDS011;13793;55.388;37.844;2024-03-02T13:09:58;30.10;;;19.50;;
26014;SDS011;13793;55.388;37.844;2024-03-02T13:12:30;23.43;;;16.70;;
26014;SDS011;13793;55.388;37.844;2024-03-02T13:15:02;28.40;;;18.20;;
26014;SDS011;13793;55.388;37.844;2024-03-02T13:17:37;25.83;;;16.73;;
26014;SDS011;13793;55.388;37.844;2024-03-02T13:20:09;26.33;;;17.57;;
26014;SDS011;13793;55.388;37.844;2024-03-02T13:22:40;55.13;;;28.10;;
26014;SDS011;13793;55.388;37.844;2024-03-02T13:25:10;33.57;;;21.50;;
26014;SDS011;13793;55.388;37.844;2024-03-02T13:27:42;37.43;;;22.27;;
26014;SDS011;13793;55.388;37.844;2024-03-02T13:30:12;32.27;;;19.93;;
26014;SDS011;13793;55.388;37.844;2024-03-02T13:32:43;42.63;;;26.47;;
26014;SDS011;13793;55.388;37.844;2024-03-02T13:35:14;34.50;;;22.10;;
26014;SDS011;13793;55.388;37.844;2024-03-02T13:37:45;47.63;;;28.93;;
26014;SDS011;13793;55.388;37.844;2024-03-02T13:40:16;40.60;;;24.07;;
26014;SDS011;13793;55.388;37.844;2024-03-02T13:42:48;30.30;;;20.63;;
26014;SDS011;13793;55.388;37.844;2024-03-02T13:45:21;31.87;;;20.17;;
26014;SDS011;13793;55.388;37.844;2024-03-02T13:47:52;32.13;;;21.10;;
26014;SDS011;13793;55.388;37.844;2024-03-02T13:50:23;30.97;;;20.23;;
26014;SDS011;13793;55.388;37.844;2024-03-02T13:53:06;36.10;;;21.47;;
26014;SDS011;13793;55.388;37.844;2024-03-02T13:55:37;37.60;;;23.10;;
26014;SDS011;13793;55.388;37.844;2024-03-02T13:58:10;33.20;;;22.33;;
26014;SDS011;13793;55.388;37.844;2024-03-02T14:00:41;35.83;;;22.30;;
26014;SDS011;13793;55.388;37.844;2024-03-02T14:03:12;35.60;;;23.40;;
26014;SDS011;13793;55.388;37.844;2024-03-02T14:05:44;32.83;;;22.67;;
26014;SDS011;13793;55.388;37.844;2024-03-02T14:08:14;37.10;;;22.93;;
26014;SDS011;13793;55.388;37.844;2024-03-02T14:10:46;37.27;;;23.80;;
26014;SDS011;13793;55.388;37.844;2024-03-02T14:13:17;35.70;;;22.57;;
26014;SDS011;13793;55.388;37.844;2024-03-02T14:15:48;39.10;;;24.63;;
26014;SDS011;13793;55.388;37.844;2024-03-02T14:18:19;41.03;;;24.80;;
26014;SDS011;13793;55.388;37.844;2024-03-02T14:20:50;38.83;;;23.93;;
26014;SDS011;13793;55.388;37.844;2024-03-02T14:23:21;39.83;;;24.63;;
26014;SDS011;13793;55.388;37.844;2024-03-02T14:25:53;44.37;;;26.37;;
26014;SDS011;13793;55.388;37.844;2024-03-02T14:28:26;43.10;;;26.93;;
26014;SDS011;13793;55.388;37.844;2024-03-02T14:30:56;47.93;;;29.70;;
26014;SDS011;13793;55.388;37.844;2024-03-02T14:33:29;51.33;;;31.97;;